首页
METAR-TAF:

METAR-TAF

机场 :

Watauga County Hospital Heliport

Boone, 北卡罗来纳州, 美国

纬度: 36-12N, 经度: 081-39W, 海拔: 959米

当前天气观测

该预报发布于12分钟前的09:15 UTC
静风
温度 10°C
湿度 100%
气压 1010 hPa
能見度: 4.8公里
散云层高于500英尺
阴天层高于1100英尺

METAR: KTNB 200915Z AUTO 00000KT 3SM RA SCT005 OVC011 10/10 A2983 RMK AO2 T00960096

时间: 05:27 (09:27 UTC)


TAF: 丢失

超过4000个机场的气象观测和天气预报(METAR&TAF报告)。

可查询的气象台以黄色和红色小点在地图上表示。

将鼠标移到小点上方,可查看气象台名称。

然后点击查看天气观测和预报。

如需切换地图:点击带黑十字的绿色按钮放大地图;点击带横线的绿色按钮缩小地图;或者点击绿色箭头查看邻近地区的地图。


METAR-TAF: